Witamy     NOTAM     FEEDBACK     Informacje     Wydarzenia     O nas      FIR Warszawa      Kontrolerzy     Piloci     Lotniska     Pliki     Linki     Forum    

Aktualna pogoda

METAR

EPBY 241000Z 28019KT 250V310 9999 SCT020 BKN035 10/06 Q1014
EPGD 241000Z 31021KT 9999 FEW023 SCT028CB BKN040 11/06 Q1010
EPKK 241000Z 27021KT 9999 FEW023TCU SCT033 10/04 Q1018
EPKT 241000Z 29015KT 270V330 9999 SCT030 BKN044 09/03 Q1019
EPLB 241000Z 29019KT 9999 BKN025 BKN038 11/07 Q1011
EPLL 241000Z 26025KT 9999 BKN021 10/05 Q1016
EPMO 241000Z 28021KT 9999 SCT022 BKN030 12/06 Q1012
EPPO 241000Z 29017KT 9999 SCT023CB BKN023 11/06 Q1018 R10/290393
EPRZ 241000Z 28020KT 9999 BKN025 11/06 Q1015
EPSC 241000Z 28014KT 9999 FEW024CB 11/08 Q1017
EPSY 241000Z 28006KT 240V320 9000 -SHRA SCT014 BKN018CB 07/06 Q1010 RESHRA
EPWA 241000Z 29013KT 260V320 9999 BKN023 12/07 Q1012 TEMPO 29016G31KT
EPWR 241000Z 30025G36KT 9999 FEW030 BKN034 11/04 Q1021
EPZG 241000Z 28013G23KT 240V320 9999 SCT032 BKN043 11/04 Q1020

METAR - MIL

EPCE 241000Z 36011G22KT 320V030 9999 -SHRA BKN024CB 10/05 Q1012 RETS RMK 097
EPDA 241000Z 32016G27KT 280V360 9999 SCT029TCU 13/07 Q1014 RMK 125 067 4/4 LT
EPLK 241000Z 30020G31KT 9999 FEW024 BKN038 10/05 Q1016 RMK 100 070 6/2=279SAP
EPLY 241000Z 28018G28KT 9999 SCT022 BKN043 11/07 Q1016 RMK 109 074 7/4=
EPMB 241000Z 33018KT 9999 VCTS SCT033CB BKN040 14/04 Q1010 RMK 140 050 5/4=
EPPR 241000Z 30012KT 9999 SCT030TCU BKN040 14/07 Q1010 RMK 137 065 5/3=
EPPW 241000Z 27020G30KT 9999 BKN020 BKN040 10/06 Q1016 RMK 099 075 7/5=
EPRA 241000Z 29015KT 9999 BKN017 10/09 Q1013
EPTM 241000Z 26016G26KT 9999 BKN022 10/04 Q1015 RMK 102 063 7/7=

 

 
© 2001 Polish VACC
[logowanie]